EKKA/KRP METAR and TAF weather

Enter ICAO airport designator
Station Type Date Time Source
EKKA METAR 2021/10/22 19:10 UTC NOAA

EKKA 221910Z AUTO 29020G31KT 9999 NCD 08/04 Q1006


Station Type Date Time Source
EKKA Decoded METAR 2021/10/22 19:10 UTC NOAA

Karup, Denmark (EKKA) 56-18N 009-07E 53M
Oct 22, 2021 - 03:10 PM EDT / 2021.10.22 1910 UTC
Wind: from the WNW (290 degrees) at 23 MPH (20 KT) gusting to 36 MPH (31 KT):0
Visibility: greater than 7 mile(s):0
Temperature: 46 F (8 C)
Dew Point: 39 F (4 C)
Relative Humidity: 75%
Pressure (altimeter): 29.71 in. Hg (1006 hPa)
ob: EKKA 221910Z AUTO 29020G31KT 9999 NCD 08/04 Q1006
cycle: 19

Station Type Date Time Source
EKKA TAF 2021/10/22 18:30 UTC NOAA

TAF EKKA 221706Z 2218/2318 29015KT 9999 SCT035
TEMPO 2218/2222 28015G30KT -SHRA FEW020CB
BECMG 2222/2301 30010KT
BECMG 2313/2316 24006KT

Example: see airport list